sensor_id;sensor_type;location;lat;lon;timestamp;temperature;humidity
45008;DHT22;30743;52.008;5.644;2024-03-22T00:00:13;15.00;99.90
45008;DHT22;30743;52.008;5.644;2024-03-22T00:02:38;15.00;99.90
45008;DHT22;30743;52.008;5.644;2024-03-22T00:05:04;14.90;99.90
45008;DHT22;30743;52.008;5.644;2024-03-22T00:07:30;15.10;99.90
45008;DHT22;30743;52.008;5.644;2024-03-22T00:09:56;15.10;99.90
45008;DHT22;30743;52.008;5.644;2024-03-22T00:12:22;15.30;99.90
45008;DHT22;30743;52.008;5.644;2024-03-22T00:14:48;15.10;99.90
45008;DHT22;30743;52.008;5.644;2024-03-22T00:17:13;15.20;99.90
45008;DHT22;30743;52.008;5.644;2024-03-22T00:19:39;15.30;99.90
45008;DHT22;30743;52.008;5.644;2024-03-22T00:22:04;15.30;99.90
45008;DHT22;30743;52.008;5.644;2024-03-22T00:24:30;15.30;99.90
45008;DHT22;30743;52.008;5.644;2024-03-22T00:26:56;15.40;99.90
45008;DHT22;30743;52.008;5.644;2024-03-22T00:29:21;15.30;99.90
45008;DHT22;30743;52.008;5.644;2024-03-22T00:31:47;15.20;99.90
45008;DHT22;30743;52.008;5.644;2024-03-22T00:36:38;15.40;99.90
45008;DHT22;30743;52.008;5.644;2024-03-22T00:39:04;15.40;99.90
45008;DHT22;30743;52.008;5.644;2024-03-22T00:41:30;15.50;99.90
45008;DHT22;30743;52.008;5.644;2024-03-22T00:43:56;15.50;99.90
45008;DHT22;30743;52.008;5.644;2024-03-22T00:46:21;15.50;99.90
45008;DHT22;30743;52.008;5.644;2024-03-22T00:48:47;15.40;99.90
45008;DHT22;30743;52.008;5.644;2024-03-22T00:51:12;15.50;99.90
45008;DHT22;30743;52.008;5.644;2024-03-22T00:53:38;15.50;99.90
45008;DHT22;30743;52.008;5.644;2024-03-22T00:56:04;15.50;99.90
45008;DHT22;30743;52.008;5.644;2024-03-22T00:58:29;15.50;99.90
45008;DHT22;30743;52.008;5.644;2024-03-22T01:00:55;15.40;99.90
45008;DHT22;30743;52.008;5.644;2024-03-22T01:03:21;15.40;99.90
45008;DHT22;30743;52.008;5.644;2024-03-22T01:05:47;15.40;99.90
45008;DHT22;30743;52.008;5.644;2024-03-22T01:08:13;15.40;99.90
45008;DHT22;30743;52.008;5.644;2024-03-22T01:10:38;15.50;99.90
45008;DHT22;30743;52.008;5.644;2024-03-22T01:13:04;15.40;99.90
45008;DHT22;30743;52.008;5.644;2024-03-22T01:15:30;15.40;99.90
45008;DHT22;30743;52.008;5.644;2024-03-22T01:17:55;15.50;99.90
45008;DHT22;30743;52.008;5.644;2024-03-22T01:20:21;15.50;99.90
45008;DHT22;30743;52.008;5.644;2024-03-22T01:22:46;15.40;99.90
45008;DHT22;30743;52.008;5.644;2024-03-22T01:25:12;15.40;99.90
45008;DHT22;30743;52.008;5.644;2024-03-22T01:27:38;15.30;99.90
45008;DHT22;30743;52.008;5.644;2024-03-22T01:30:04;15.30;99.90
45008;DHT22;30743;52.008;5.644;2024-03-22T01:32:29;15.30;99.90
45008;DHT22;30743;52.008;5.644;2024-03-22T01:34:55;15.10;99.90
45008;DHT22;30743;52.008;5.644;2024-03-22T01:37:21;15.10;99.90
45008;DHT22;30743;52.008;5.644;2024-03-22T01:39:46;15.10;99.90
45008;DHT22;30743;52.008;5.644;2024-03-22T01:42:12;15.30;99.90
45008;DHT22;30743;52.008;5.644;2024-03-22T01:44:37;15.20;99.90
45008;DHT22;30743;52.008;5.644;2024-03-22T01:47:03;15.30;99.90
45008;DHT22;30743;52.008;5.644;2024-03-22T01:49:30;15.30;99.90
45008;DHT22;30743;52.008;5.644;2024-03-22T01:51:55;15.30;99.90
45008;DHT22;30743;52.008;5.644;2024-03-22T01:54:21;15.30;99.90
45008;DHT22;30743;52.008;5.644;2024-03-22T01:56:47;15.20;99.90
45008;DHT22;30743;52.008;5.644;2024-03-22T01:59:13;15.40;99.90
45008;DHT22;30743;52.008;5.644;2024-03-22T02:01:39;15.40;99.90
45008;DHT22;30743;52.008;5.644;2024-03-22T02:04:05;15.20;99.90
45008;DHT22;30743;52.008;5.644;2024-03-22T02:06:31;15.30;99.90
45008;DHT22;30743;52.008;5.644;2024-03-22T02:08:58;15.30;99.90
45008;DHT22;30743;52.008;5.644;2024-03-22T02:11:24;15.40;99.90
45008;DHT22;30743;52.008;5.644;2024-03-22T02:13:51;15.30;99.90
45008;DHT22;30743;52.008;5.644;2024-03-22T02:16:16;15.30;99.90
45008;DHT22;30743;52.008;5.644;2024-03-22T02:18:42;15.30;99.90
45008;DHT22;30743;52.008;5.644;2024-03-22T02:21:08;15.40;99.90
45008;DHT22;30743;52.008;5.644;2024-03-22T02:23:38;15.50;99.90
45008;DHT22;30743;52.008;5.644;2024-03-22T02:26:04;15.30;99.90
45008;DHT22;30743;52.008;5.644;2024-03-22T02:28:31;15.20;99.90
45008;DHT22;30743;52.008;5.644;2024-03-22T02:31:01;15.20;99.90
45008;DHT22;30743;52.008;5.644;2024-03-22T02:33:27;15.30;99.90
45008;DHT22;30743;52.008;5.644;2024-03-22T02:35:52;15.10;99.90
45008;DHT22;30743;52.008;5.644;2024-03-22T02:38:18;15.10;99.90
45008;DHT22;30743;52.008;5.644;2024-03-22T02:40:44;15.00;99.90
45008;DHT22;30743;52.008;5.644;2024-03-22T02:43:10;14.90;99.90
45008;DHT22;30743;52.008;5.644;2024-03-22T02:45:36;14.90;99.90
45008;DHT22;30743;52.008;5.644;2024-03-22T02:48:02;14.90;99.90
45008;DHT22;30743;52.008;5.644;2024-03-22T02:50:27;14.80;99.90
45008;DHT22;30743;52.008;5.644;2024-03-22T02:52:53;14.70;99.90
45008;DHT22;30743;52.008;5.644;2024-03-22T02:55:19;14.60;99.90
45008;DHT22;30743;52.008;5.644;2024-03-22T02:57:44;14.70;99.90
45008;DHT22;30743;52.008;5.644;2024-03-22T03:00:10;14.60;99.90
45008;DHT22;30743;52.008;5.644;2024-03-22T03:02:36;14.70;99.90
45008;DHT22;30743;52.008;5.644;2024-03-22T03:05:01;14.70;99.90
45008;DHT22;30743;52.008;5.644;2024-03-22T03:07:27;14.60;99.90
45008;DHT22;30743;52.008;5.644;2024-03-22T03:09:53;14.70;99.90
45008;DHT22;30743;52.008;5.644;2024-03-22T03:12:19;14.60;99.90
45008;DHT22;30743;52.008;5.644;2024-03-22T03:14:44;14.40;99.90
45008;DHT22;30743;52.008;5.644;2024-03-22T03:17:10;14.40;99.90
45008;DHT22;30743;52.008;5.644;2024-03-22T03:19:36;14.30;99.90
45008;DHT22;30743;52.008;5.644;2024-03-22T03:22:01;14.30;99.90
45008;DHT22;30743;52.008;5.644;2024-03-22T03:24:27;14.30;99.90
45008;DHT22;30743;52.008;5.644;2024-03-22T03:26:53;14.30;99.90
45008;DHT22;30743;52.008;5.644;2024-03-22T03:29:19;14.20;99.90
45008;DHT22;30743;52.008;5.644;2024-03-22T03:31:45;14.10;99.90
45008;DHT22;30743;52.008;5.644;2024-03-22T03:34:10;14.00;99.90
45008;DHT22;30743;52.008;5.644;2024-03-22T03:36:36;13.90;99.90
45008;DHT22;30743;52.008;5.644;2024-03-22T03:39:02;13.80;99.90
45008;DHT22;30743;52.008;5.644;2024-03-22T03:41:27;13.80;99.90
45008;DHT22;30743;52.008;5.644;2024-03-22T03:43:53;13.80;99.90
45008;DHT22;30743;52.008;5.644;2024-03-22T03:46:18;13.60;99.90
45008;DHT22;30743;52.008;5.644;2024-03-22T03:48:44;13.70;99.90
45008;DHT22;30743;52.008;5.644;2024-03-22T03:51:09;13.70;99.90
45008;DHT22;30743;52.008;5.644;2024-03-22T03:53:35;14.00;99.90
45008;DHT22;30743;52.008;5.644;2024-03-22T03:56:00;14.20;99.90
45008;DHT22;30743;52.008;5.644;2024-03-22T03:58:26;14.10;99.90
45008;DHT22;30743;52.008;5.644;2024-03-22T04:00:52;14.10;99.90
45008;DHT22;30743;52.008;5.644;2024-03-22T04:03:17;13.80;99.90
45008;DHT22;30743;52.008;5.644;2024-03-22T04:05:43;13.60;99.90
45008;DHT22;30743;52.008;5.644;2024-03-22T04:08:09;13.50;99.90
45008;DHT22;30743;52.008;5.644;2024-03-22T04:10:34;13.30;99.90
45008;DHT22;30743;52.008;5.644;2024-03-22T04:13:00;13.40;99.90
45008;DHT22;30743;52.008;5.644;2024-03-22T04:15:25;13.30;99.90
45008;DHT22;30743;52.008;5.644;2024-03-22T04:17:51;13.50;99.90
45008;DHT22;30743;52.008;5.644;2024-03-22T04:20:16;13.40;99.90
45008;DHT22;30743;52.008;5.644;2024-03-22T04:22:42;13.40;99.90
45008;DHT22;30743;52.008;5.644;2024-03-22T04:25:08;13.20;99.90
45008;DHT22;30743;52.008;5.644;2024-03-22T04:27:36;13.20;99.90
45008;DHT22;30743;52.008;5.644;2024-03-22T04:30:02;13.30;99.90
45008;DHT22;30743;52.008;5.644;2024-03-22T04:32:28;13.30;99.90
45008;DHT22;30743;52.008;5.644;2024-03-22T04:34:53;13.30;99.90
45008;DHT22;30743;52.008;5.644;2024-03-22T04:37:20;13.30;99.90
45008;DHT22;30743;52.008;5.644;2024-03-22T04:39:46;13.50;99.90
45008;DHT22;30743;52.008;5.644;2024-03-22T04:42:11;13.60;99.90
45008;DHT22;30743;52.008;5.644;2024-03-22T04:44:37;13.50;99.90
45008;DHT22;30743;52.008;5.644;2024-03-22T04:47:03;13.50;99.90
45008;DHT22;30743;52.008;5.644;2024-03-22T04:49:28;13.40;99.90
45008;DHT22;30743;52.008;5.644;2024-03-22T04:51:54;13.20;99.90
45008;DHT22;30743;52.008;5.644;2024-03-22T04:54:19;13.20;99.90
45008;DHT22;30743;52.008;5.644;2024-03-22T04:56:45;13.20;99.90
45008;DHT22;30743;52.008;5.644;2024-03-22T04:59:10;13.30;99.90
45008;DHT22;30743;52.008;5.644;2024-03-22T05:01:36;13.00;99.90
45008;DHT22;30743;52.008;5.644;2024-03-22T05:04:01;13.10;99.90
45008;DHT22;30743;52.008;5.644;2024-03-22T05:06:27;13.00;99.90
45008;DHT22;30743;52.008;5.644;2024-03-22T05:08:52;13.00;99.90
45008;DHT22;30743;52.008;5.644;2024-03-22T05:11:18;13.00;99.90
45008;DHT22;30743;52.008;5.644;2024-03-22T05:13:43;12.90;99.90
45008;DHT22;30743;52.008;5.644;2024-03-22T05:16:09;12.90;99.90
45008;DHT22;30743;52.008;5.644;2024-03-22T05:18:36;13.00;99.90
45008;DHT22;30743;52.008;5.644;2024-03-22T05:21:02;13.10;99.90
45008;DHT22;30743;52.008;5.644;2024-03-22T05:23:28;13.10;99.90
45008;DHT22;30743;52.008;5.644;2024-03-22T05:25:54;13.00;99.90
45008;DHT22;30743;52.008;5.644;2024-03-22T05:28:19;13.00;99.90
45008;DHT22;30743;52.008;5.644;2024-03-22T05:30:45;12.90;99.90
45008;DHT22;30743;52.008;5.644;2024-03-22T05:33:11;13.00;99.90
45008;DHT22;30743;52.008;5.644;2024-03-22T05:35:37;13.00;99.90
45008;DHT22;30743;52.008;5.644;2024-03-22T05:38:03;12.80;99.90
45008;DHT22;30743;52.008;5.644;2024-03-22T05:40:29;12.90;99.90
45008;DHT22;30743;52.008;5.644;2024-03-22T05:42:55;12.90;99.90
45008;DHT22;30743;52.008;5.644;2024-03-22T05:45:20;12.90;99.90
45008;DHT22;30743;52.008;5.644;2024-03-22T05:47:46;12.90;99.90
45008;DHT22;30743;52.008;5.644;2024-03-22T05:50:12;13.00;99.90
45008;DHT22;30743;52.008;5.644;2024-03-22T05:52:39;13.20;99.90
45008;DHT22;30743;52.008;5.644;2024-03-22T05:55:05;13.00;99.90
45008;DHT22;30743;52.008;5.644;2024-03-22T05:57:31;13.00;99.90
45008;DHT22;30743;52.008;5.644;2024-03-22T05:59:56;12.80;99.90
45008;DHT22;30743;52.008;5.644;2024-03-22T06:02:22;12.90;99.90
45008;DHT22;30743;52.008;5.644;2024-03-22T06:04:48;12.80;99.90
45008;DHT22;30743;52.008;5.644;2024-03-22T06:07:14;12.90;99.90
45008;DHT22;30743;52.008;5.644;2024-03-22T06:09:41;12.90;99.90
45008;DHT22;30743;52.008;5.644;2024-03-22T06:12:18;13.00;99.90
45008;DHT22;30743;52.008;5.644;2024-03-22T06:14:43;13.00;99.90
45008;DHT22;30743;52.008;5.644;2024-03-22T06:17:09;12.90;99.90
45008;DHT22;30743;52.008;5.644;2024-03-22T06:19:36;13.10;99.90
45008;DHT22;30743;52.008;5.644;2024-03-22T06:22:02;13.30;99.90
45008;DHT22;30743;52.008;5.644;2024-03-22T06:24:28;13.20;99.90
45008;DHT22;30743;52.008;5.644;2024-03-22T06:26:54;13.20;99.90
45008;DHT22;30743;52.008;5.644;2024-03-22T06:29:19;13.30;99.90
45008;DHT22;30743;52.008;5.644;2024-03-22T06:31:45;13.30;99.90
45008;DHT22;30743;52.008;5.644;2024-03-22T06:34:11;13.30;99.90
45008;DHT22;30743;52.008;5.644;2024-03-22T06:36:36;13.30;99.90
45008;DHT22;30743;52.008;5.644;2024-03-22T06:39:02;13.30;99.90
45008;DHT22;30743;52.008;5.644;2024-03-22T06:41:34;13.20;99.90
45008;DHT22;30743;52.008;5.644;2024-03-22T06:43:59;13.30;99.90
45008;DHT22;30743;52.008;5.644;2024-03-22T06:46:25;13.20;99.90
45008;DHT22;30743;52.008;5.644;2024-03-22T06:48:51;13.40;99.90
45008;DHT22;30743;52.008;5.644;2024-03-22T06:51:17;13.30;99.90
45008;DHT22;30743;52.008;5.644;2024-03-22T06:53:43;13.30;99.90
45008;DHT22;30743;52.008;5.644;2024-03-22T06:56:08;13.30;99.90
45008;DHT22;30743;52.008;5.644;2024-03-22T06:58:35;13.40;99.90
45008;DHT22;30743;52.008;5.644;2024-03-22T07:01:01;13.20;99.90
45008;DHT22;30743;52.008;5.644;2024-03-22T07:03:27;13.30;99.90
45008;DHT22;30743;52.008;5.644;2024-03-22T07:05:52;13.20;99.90
45008;DHT22;30743;52.008;5.644;2024-03-22T07:08:18;13.20;99.90
45008;DHT22;30743;52.008;5.644;2024-03-22T07:10:44;13.20;99.90
45008;DHT22;30743;52.008;5.644;2024-03-22T07:13:10;13.40;99.90
45008;DHT22;30743;52.008;5.644;2024-03-22T07:15:36;13.60;99.90
45008;DHT22;30743;52.008;5.644;2024-03-22T07:18:02;13.70;99.90
45008;DHT22;30743;52.008;5.644;2024-03-22T07:20:30;13.60;99.90
45008;DHT22;30743;52.008;5.644;2024-03-22T07:22:55;13.70;99.90
45008;DHT22;30743;52.008;5.644;2024-03-22T07:25:21;13.70;99.90
45008;DHT22;30743;52.008;5.644;2024-03-22T07:27:46;13.80;99.90
45008;DHT22;30743;52.008;5.644;2024-03-22T07:30:14;13.80;99.90
45008;DHT22;30743;52.008;5.644;2024-03-22T07:32:40;13.90;99.90
45008;DHT22;30743;52.008;5.644;2024-03-22T07:35:05;13.90;99.90
45008;DHT22;30743;52.008;5.644;2024-03-22T07:37:32;13.60;99.90
45008;DHT22;30743;52.008;5.644;2024-03-22T07:39:59;13.60;99.90
45008;DHT22;30743;52.008;5.644;2024-03-22T07:42:25;13.50;99.90
45008;DHT22;30743;52.008;5.644;2024-03-22T07:44:50;13.70;99.90
45008;DHT22;30743;52.008;5.644;2024-03-22T07:47:16;13.80;99.90
45008;DHT22;30743;52.008;5.644;2024-03-22T07:49:41;13.80;99.90
45008;DHT22;30743;52.008;5.644;2024-03-22T07:52:07;13.80;99.90
45008;DHT22;30743;52.008;5.644;2024-03-22T07:54:33;13.70;99.90
45008;DHT22;30743;52.008;5.644;2024-03-22T07:56:58;13.60;99.90
45008;DHT22;30743;52.008;5.644;2024-03-22T07:59:24;13.60;99.90
45008;DHT22;30743;52.008;5.644;2024-03-22T08:01:50;13.90;99.90
45008;DHT22;30743;52.008;5.644;2024-03-22T08:04:15;13.60;99.90
45008;DHT22;30743;52.008;5.644;2024-03-22T08:06:41;13.70;99.90
45008;DHT22;30743;52.008;5.644;2024-03-22T08:09:07;13.90;99.90
45008;DHT22;30743;52.008;5.644;2024-03-22T08:11:33;13.90;99.90
45008;DHT22;30743;52.008;5.644;2024-03-22T08:13:59;13.80;99.90
45008;DHT22;30743;52.008;5.644;2024-03-22T08:16:28;13.80;99.90
45008;DHT22;30743;52.008;5.644;2024-03-22T08:18:53;13.50;99.90
45008;DHT22;30743;52.008;5.644;2024-03-22T08:21:19;13.60;99.90
45008;DHT22;30743;52.008;5.644;2024-03-22T08:23:45;13.60;99.90
45008;DHT22;30743;52.008;5.644;2024-03-22T08:26:10;13.60;99.90
45008;DHT22;30743;52.008;5.644;2024-03-22T08:28:36;13.70;99.90
45008;DHT22;30743;52.008;5.644;2024-03-22T08:31:05;13.80;99.90
45008;DHT22;30743;52.008;5.644;2024-03-22T08:33:31;13.70;99.90
45008;DHT22;30743;52.008;5.644;2024-03-22T08:35:56;13.70;99.90
45008;DHT22;30743;52.008;5.644;2024-03-22T08:38:22;13.70;99.90
45008;DHT22;30743;52.008;5.644;2024-03-22T08:40:49;13.70;99.90
45008;DHT22;30743;52.008;5.644;2024-03-22T08:43:15;13.70;99.90
45008;DHT22;30743;52.008;5.644;2024-03-22T08:45:41;13.70;99.90
45008;DHT22;30743;52.008;5.644;2024-03-22T08:48:07;13.60;99.90
45008;DHT22;30743;52.008;5.644;2024-03-22T08:50:33;13.40;99.90
45008;DHT22;30743;52.008;5.644;2024-03-22T08:52:59;13.30;99.90
45008;DHT22;30743;52.008;5.644;2024-03-22T08:55:24;13.40;99.90
45008;DHT22;30743;52.008;5.644;2024-03-22T08:57:50;13.20;99.90
45008;DHT22;30743;52.008;5.644;2024-03-22T09:00:16;13.20;99.90
45008;DHT22;30743;52.008;5.644;2024-03-22T09:02:42;13.50;99.90
45008;DHT22;30743;52.008;5.644;2024-03-22T09:05:07;13.60;99.90
45008;DHT22;30743;52.008;5.644;2024-03-22T09:07:34;13.60;99.90
45008;DHT22;30743;52.008;5.644;2024-03-22T09:09:59;13.60;99.90
45008;DHT22;30743;52.008;5.644;2024-03-22T09:12:25;13.80;99.90
45008;DHT22;30743;52.008;5.644;2024-03-22T09:14:50;13.90;99.90
45008;DHT22;30743;52.008;5.644;2024-03-22T09:17:16;13.70;99.90
45008;DHT22;30743;52.008;5.644;2024-03-22T09:19:41;13.60;99.90
45008;DHT22;30743;52.008;5.644;2024-03-22T09:22:07;13.60;99.90
45008;DHT22;30743;52.008;5.644;2024-03-22T09:24:32;13.70;99.90
45008;DHT22;30743;52.008;5.644;2024-03-22T09:26:58;13.90;99.90
45008;DHT22;30743;52.008;5.644;2024-03-22T09:29:24;13.80;99.90
45008;DHT22;30743;52.008;5.644;2024-03-22T09:31:49;13.70;99.90
45008;DHT22;30743;52.008;5.644;2024-03-22T09:34:16;13.70;99.90
45008;DHT22;30743;52.008;5.644;2024-03-22T09:36:41;13.60;99.90
45008;DHT22;30743;52.008;5.644;2024-03-22T09:39:07;13.70;99.90
45008;DHT22;30743;52.008;5.644;2024-03-22T09:41:40;13.70;99.90
45008;DHT22;30743;52.008;5.644;2024-03-22T09:44:13;13.70;99.90
45008;DHT22;30743;52.008;5.644;2024-03-22T09:46:42;13.60;99.90
45008;DHT22;30743;52.008;5.644;2024-03-22T09:49:10;13.70;99.90
45008;DHT22;30743;52.008;5.644;2024-03-22T09:51:37;13.70;99.90
45008;DHT22;30743;52.008;5.644;2024-03-22T09:54:03;14.00;99.90
45008;DHT22;30743;52.008;5.644;2024-03-22T09:56:30;14.00;99.90
45008;DHT22;30743;52.008;5.644;2024-03-22T09:58:57;14.10;99.90
45008;DHT22;30743;52.008;5.644;2024-03-22T10:01:24;14.40;99.90
45008;DHT22;30743;52.008;5.644;2024-03-22T10:03:51;14.40;99.90
45008;DHT22;30743;52.008;5.644;2024-03-22T10:06:17;14.10;99.90
45008;DHT22;30743;52.008;5.644;2024-03-22T10:08:44;13.80;99.90
45008;DHT22;30743;52.008;5.644;2024-03-22T10:11:10;13.50;99.90
45008;DHT22;30743;52.008;5.644;2024-03-22T10:13:36;13.50;99.90
45008;DHT22;30743;52.008;5.644;2024-03-22T10:16:01;13.40;99.90
45008;DHT22;30743;52.008;5.644;2024-03-22T10:18:27;13.40;99.90
45008;DHT22;30743;52.008;5.644;2024-03-22T10:21:03;13.20;99.90
45008;DHT22;30743;52.008;5.644;2024-03-22T10:23:30;13.30;99.90
45008;DHT22;30743;52.008;5.644;2024-03-22T10:26:01;13.30;99.90
45008;DHT22;30743;52.008;5.644;2024-03-22T10:28:27;13.50;99.90
45008;DHT22;30743;52.008;5.644;2024-03-22T10:30:53;13.50;99.90
45008;DHT22;30743;52.008;5.644;2024-03-22T10:33:20;13.40;99.90
45008;DHT22;30743;52.008;5.644;2024-03-22T10:35:52;13.20;99.90
45008;DHT22;30743;52.008;5.644;2024-03-22T10:38:19;13.20;99.90
45008;DHT22;30743;52.008;5.644;2024-03-22T10:40:46;13.40;99.90
45008;DHT22;30743;52.008;5.644;2024-03-22T10:43:15;13.50;99.90
45008;DHT22;30743;52.008;5.644;2024-03-22T10:45:42;13.60;99.90
45008;DHT22;30743;52.008;5.644;2024-03-22T10:48:11;13.60;99.90
45008;DHT22;30743;52.008;5.644;2024-03-22T10:50:40;13.40;99.90
45008;DHT22;30743;52.008;5.644;2024-03-22T10:53:12;13.30;99.90
45008;DHT22;30743;52.008;5.644;2024-03-22T10:55:42;13.60;99.90
45008;DHT22;30743;52.008;5.644;2024-03-22T10:58:20;13.60;99.90
45008;DHT22;30743;52.008;5.644;2024-03-22T11:00:46;13.60;99.90
45008;DHT22;30743;52.008;5.644;2024-03-22T11:03:13;13.60;99.90
45008;DHT22;30743;52.008;5.644;2024-03-22T11:05:48;13.80;99.90
45008;DHT22;30743;52.008;5.644;2024-03-22T11:08:26;13.60;99.90
45008;DHT22;30743;52.008;5.644;2024-03-22T11:10:53;13.50;99.90
45008;DHT22;30743;52.008;5.644;2024-03-22T11:13:18;13.60;99.90
45008;DHT22;30743;52.008;5.644;2024-03-22T11:15:47;13.80;99.90
45008;DHT22;30743;52.008;5.644;2024-03-22T11:18:13;13.50;99.90
45008;DHT22;30743;52.008;5.644;2024-03-22T11:20:39;13.70;99.90
45008;DHT22;30743;52.008;5.644;2024-03-22T11:23:05;13.60;99.90
45008;DHT22;30743;52.008;5.644;2024-03-22T11:25:35;13.60;99.90
45008;DHT22;30743;52.008;5.644;2024-03-22T11:28:01;13.50;99.90
45008;DHT22;30743;52.008;5.644;2024-03-22T11:30:33;13.80;99.90
45008;DHT22;30743;52.008;5.644;2024-03-22T11:33:02;13.90;99.90
45008;DHT22;30743;52.008;5.644;2024-03-22T11:35:28;13.90;99.90
45008;DHT22;30743;52.008;5.644;2024-03-22T11:37:54;13.90;99.90
45008;DHT22;30743;52.008;5.644;2024-03-22T11:40:19;13.70;99.90
45008;DHT22;30743;52.008;5.644;2024-03-22T11:42:49;13.80;99.90
45008;DHT22;30743;52.008;5.644;2024-03-22T11:45:17;13.80;99.90
45008;DHT22;30743;52.008;5.644;2024-03-22T11:47:44;13.80;99.90
45008;DHT22;30743;52.008;5.644;2024-03-22T11:50:11;13.60;99.90
45008;DHT22;30743;52.008;5.644;2024-03-22T11:52:40;13.60;99.90
45008;DHT22;30743;52.008;5.644;2024-03-22T11:55:06;13.70;99.90
45008;DHT22;30743;52.008;5.644;2024-03-22T11:57:32;13.50;99.90
45008;DHT22;30743;52.008;5.644;2024-03-22T12:00:02;13.60;99.90
45008;DHT22;30743;52.008;5.644;2024-03-22T12:02:31;13.60;99.90
45008;DHT22;30743;52.008;5.644;2024-03-22T12:04:57;13.60;99.90
45008;DHT22;30743;52.008;5.644;2024-03-22T12:07:24;13.60;99.90
45008;DHT22;30743;52.008;5.644;2024-03-22T12:09:49;13.80;99.90
45008;DHT22;30743;52.008;5.644;2024-03-22T12:12:15;13.90;99.90
45008;DHT22;30743;52.008;5.644;2024-03-22T12:14:40;13.90;99.90
45008;DHT22;30743;52.008;5.644;2024-03-22T12:17:07;14.10;99.90
45008;DHT22;30743;52.008;5.644;2024-03-22T12:19:33;14.40;99.90
45008;DHT22;30743;52.008;5.644;2024-03-22T12:21:59;14.50;99.90
45008;DHT22;30743;52.008;5.644;2024-03-22T12:24:25;14.80;99.90
45008;DHT22;30743;52.008;5.644;2024-03-22T12:26:51;15.00;99.90
45008;DHT22;30743;52.008;5.644;2024-03-22T12:29:17;14.90;99.90
45008;DHT22;30743;52.008;5.644;2024-03-22T12:31:43;14.80;99.90
45008;DHT22;30743;52.008;5.644;2024-03-22T12:34:09;14.60;99.90
45008;DHT22;30743;52.008;5.644;2024-03-22T12:36:35;14.70;99.90
45008;DHT22;30743;52.008;5.644;2024-03-22T12:39:01;14.90;99.90
45008;DHT22;30743;52.008;5.644;2024-03-22T12:41:27;15.00;99.90
45008;DHT22;30743;52.008;5.644;2024-03-22T12:43:54;14.90;99.90
45008;DHT22;30743;52.008;5.644;2024-03-22T12:46:20;14.80;99.90
45008;DHT22;30743;52.008;5.644;2024-03-22T12:48:46;14.80;99.90
45008;DHT22;30743;52.008;5.644;2024-03-22T12:51:11;14.70;99.90
45008;DHT22;30743;52.008;5.644;2024-03-22T12:53:37;14.80;99.90
45008;DHT22;30743;52.008;5.644;2024-03-22T12:56:03;14.90;99.90
45008;DHT22;30743;52.008;5.644;2024-03-22T12:58:30;15.00;99.90
45008;DHT22;30743;52.008;5.644;2024-03-22T13:00:56;15.30;99.90
45008;DHT22;30743;52.008;5.644;2024-03-22T13:03:22;15.50;99.90
45008;DHT22;30743;52.008;5.644;2024-03-22T13:05:48;15.50;99.90
45008;DHT22;30743;52.008;5.644;2024-03-22T13:08:13;15.70;99.90
45008;DHT22;30743;52.008;5.644;2024-03-22T13:10:39;15.90;99.90
45008;DHT22;30743;52.008;5.644;2024-03-22T13:13:08;15.80;99.90
45008;DHT22;30743;52.008;5.644;2024-03-22T13:15:34;15.80;99.90
45008;DHT22;30743;52.008;5.644;2024-03-22T13:18:00;15.90;99.90
45008;DHT22;30743;52.008;5.644;2024-03-22T13:20:26;15.90;99.90
45008;DHT22;30743;52.008;5.644;2024-03-22T13:22:51;16.00;99.90
45008;DHT22;30743;52.008;5.644;2024-03-22T13:25:17;16.10;99.90
45008;DHT22;30743;52.008;5.644;2024-03-22T13:27:44;16.10;99.90
45008;DHT22;30743;52.008;5.644;2024-03-22T13:30:09;16.10;99.90
45008;DHT22;30743;52.008;5.644;2024-03-22T13:32:37;16.20;99.90
45008;DHT22;30743;52.008;5.644;2024-03-22T13:35:03;16.40;99.90
45008;DHT22;30743;52.008;5.644;2024-03-22T13:37:28;16.40;99.90
45008;DHT22;30743;52.008;5.644;2024-03-22T13:39:54;16.30;99.90
45008;DHT22;30743;52.008;5.644;2024-03-22T13:42:20;16.30;99.90
45008;DHT22;30743;52.008;5.644;2024-03-22T13:44:45;16.30;99.90
45008;DHT22;30743;52.008;5.644;2024-03-22T13:47:11;16.30;99.90
45008;DHT22;30743;52.008;5.644;2024-03-22T13:49:36;16.50;99.90
45008;DHT22;30743;52.008;5.644;2024-03-22T13:52:04;16.10;99.90
45008;DHT22;30743;52.008;5.644;2024-03-22T13:54:30;16.20;99.90
45008;DHT22;30743;52.008;5.644;2024-03-22T13:56:55;16.30;99.90
45008;DHT22;30743;52.008;5.644;2024-03-22T13:59:21;16.00;99.90
45008;DHT22;30743;52.008;5.644;2024-03-22T14:01:46;15.90;99.90
45008;DHT22;30743;52.008;5.644;2024-03-22T14:04:12;15.80;99.90
45008;DHT22;30743;52.008;5.644;2024-03-22T14:06:40;15.90;99.90
45008;DHT22;30743;52.008;5.644;2024-03-22T14:09:07;15.90;99.90
45008;DHT22;30743;52.008;5.644;2024-03-22T14:11:36;15.90;99.90
45008;DHT22;30743;52.008;5.644;2024-03-22T14:14:01;16.00;99.90
45008;DHT22;30743;52.008;5.644;2024-03-22T14:16:27;16.10;99.90
45008;DHT22;30743;52.008;5.644;2024-03-22T14:18:52;16.20;99.90
45008;DHT22;30743;52.008;5.644;2024-03-22T14:21:18;16.10;99.90
45008;DHT22;30743;52.008;5.644;2024-03-22T14:23:46;16.10;99.90
45008;DHT22;30743;52.008;5.644;2024-03-22T14:26:12;16.20;99.90
45008;DHT22;30743;52.008;5.644;2024-03-22T14:28:38;16.30;99.90
45008;DHT22;30743;52.008;5.644;2024-03-22T14:31:06;16.40;99.90
45008;DHT22;30743;52.008;5.644;2024-03-22T14:33:37;16.50;99.90
45008;DHT22;30743;52.008;5.644;2024-03-22T14:36:03;16.50;99.90
45008;DHT22;30743;52.008;5.644;2024-03-22T14:38:31;16.50;99.90
45008;DHT22;30743;52.008;5.644;2024-03-22T14:40:57;16.60;99.90
45008;DHT22;30743;52.008;5.644;2024-03-22T14:43:26;16.60;99.90
45008;DHT22;30743;52.008;5.644;2024-03-22T14:45:55;16.60;99.90
45008;DHT22;30743;52.008;5.644;2024-03-22T14:48:22;16.60;99.90
45008;DHT22;30743;52.008;5.644;2024-03-22T14:50:48;16.70;99.90
45008;DHT22;30743;52.008;5.644;2024-03-22T14:53:14;16.50;99.90
45008;DHT22;30743;52.008;5.644;2024-03-22T14:55:54;16.50;99.90
45008;DHT22;30743;52.008;5.644;2024-03-22T14:58:23;16.50;99.90
45008;DHT22;30743;52.008;5.644;2024-03-22T15:00:56;16.40;99.90
45008;DHT22;30743;52.008;5.644;2024-03-22T15:03:22;16.50;99.90
45008;DHT22;30743;52.008;5.644;2024-03-22T15:05:51;16.50;99.90
45008;DHT22;30743;52.008;5.644;2024-03-22T15:08:17;16.30;99.90
45008;DHT22;30743;52.008;5.644;2024-03-22T15:10:43;16.20;99.90
45008;DHT22;30743;52.008;5.644;2024-03-22T15:13:09;16.10;99.90
45008;DHT22;30743;52.008;5.644;2024-03-22T15:15:36;15.80;99.90
45008;DHT22;30743;52.008;5.644;2024-03-22T15:18:01;15.60;99.90
45008;DHT22;30743;52.008;5.644;2024-03-22T15:20:27;15.60;99.90
45008;DHT22;30743;52.008;5.644;2024-03-22T15:22:54;15.70;99.90
45008;DHT22;30743;52.008;5.644;2024-03-22T15:25:20;15.50;99.90